Aeroporto :
LOGIN :

Iscrizione | Disclaimer

   EN    FR    IT 

 










Sommario :    VFR   VFR Marginale   IFR   IFR Intensivo   IFR Molto Intensivo
Visibilità : 
Base nubi : 
>= 8 km
>= 3000ft
5 / 8 km
1000 / 3000 ft
1500m / 5 km
500 / 1000 ft
800 / 1500m
200 / 500 ft
< 800m
< 200 ft
Simboli :   Temporali  Nebbia  Neve Forte  Precipitazioni Forti  Vento > 20 kt
SIGMETs :   Varie  Temporali  Ghiacco  Turbolenza  Onda orograficha  Ceneri Vulcaniche






- Altitudine del aeroporto : 297 ft
- Codice IATA : ODB


LEBA - Córdoba

ULTIMO METAR :
  • 270130Z AUTO 21003KT CAVOK 05/03 Q1024

METARs OBSOLETI :
  • 270100Z AUTO VRB02KT CAVOK 06/03 Q1023
  • 270030Z AUTO 22003KT 190V310 CAVOK 06/03 Q1023
  • 270000Z AUTO 25003KT 200V300 CAVOK 06/03 Q1023
  • 262330Z AUTO 19003KT 150V220 CAVOK 07/03 Q1024
  • 262300Z AUTO VRB01KT CAVOK 08/03 Q1023

Previsioni scadute.



MetMap, La meteo Aeronautica in un colpo d'occhio ! - Copyright ORBIFLY Dicembre 2007 - Disclaimer

ORBIFLY MET'MAP TEAM :

Programmazione e sviluppo : Alexandra Zaïnal
Concezione : Baudouin d'Aumeries
Aiuto per la programmazione : Marc-Olivier Méhu
Supporto tecnico e logistico : Manuel Goepfert
Aiuto per la traduzione : Arnaldo La Scala

Contatto : metmap@orbifly.com




FONTI E CREDITI :

   NOAA